Latest Weather Observations for Smithton

IDT60801

Issued at 12:01 am EST Sunday 6 September 2026 (issued every 10 minutes, with the page automatically refreshed every 10 minutes)

About weather observations | Map of weather stations | Latest weather observations for TAS | Other Formats
Station Details ID: 091292 Name: SMITHTON AERODROME Lat: -40.83 Lon: 145.08 Height: 7.5 m
Data from the previous 72 hours. | See also: Recent months at Smithton
Date/Time
EST
Temp
°C
App
Temp
°C
Dew
Point
°C
Rel
Hum
%
Delta-T
°C
Wind Press
QNH
hPa
Press
MSL
hPa
Rain since
9am
mm
Dir  Spd
km/h
Gust
km/h
Spd
kts
Gust
kts
06/12:00am 11.9 5.4 10.5 91 0.7 SW 35 46 19 25 1005.0 1005.0 8.2
 
Date/Time
EST
Temp
°C
App
Temp
°C
Dew
Point
°C
Rel
Hum
%
Delta-T
°C
Wind Press
QNH
hPa
Press
MSL
hPa
Rain since
9am
mm
Dir  Spd
km/h
Gust
km/h
Spd
kts
Gust
kts
05/11:30pm 11.7 6.1 10.3 91 0.7 SW 30 41 16 22 1004.5 1004.5 8.2
05/11:00pm 11.8 6.6 10.2 90 0.8 SW 28 41 15 22 1003.7 1003.7 8.2
05/10:30pm 12.0 5.5 10.2 89 0.9 SW 35 48 19 26 1003.2 1003.2 8.2
05/10:00pm 11.8 5.7 10.5 92 0.7 SSW 33 43 18 23 1002.2 1002.2 8.2
05/09:30pm 11.7 7.0 10.6 93 0.6 SSW 26 33 14 18 1001.2 1001.2 8.2
05/09:00pm 11.8 8.4 10.7 93 0.6 SW 19 24 10 13 1000.3 1000.3 8.2
05/08:30pm 11.8 7.9 10.7 93 0.6 WSW 22 30 12 16 999.4 999.4 8.2
05/08:00pm 11.7 5.8 10.4 92 0.7 WSW 32 41 17 22 999.0 999.0 8.2
05/07:30pm 11.9 7.5 10.3 90 0.8 WSW 24 35 13 19 998.8 998.8 8.0
05/07:00pm 12.1 7.5 11.0 93 0.6 W 26 35 14 19 998.0 998.0 8.0
05/06:30pm 11.6 8.1 10.3 92 0.7 W 19 26 10 14 997.8 997.8 7.6
05/06:00pm 11.6 6.8 10.3 92 0.7 WSW 26 35 14 19 997.5 997.5 7.2
05/05:38pm 11.7 5.6 10.4 92 0.7 WSW 33 46 18 25 996.9 996.9 7.2
05/05:30pm 11.8 5.3 10.5 92 0.7 WNW 35 54 19 29 996.5 996.5 7.2
05/05:29pm 11.8 5.3 10.5 92 0.7 WNW 35 54 19 29 996.5 996.5 7.2
05/05:24pm 11.7 6.5 10.4 92 0.7 WNW 28 46 15 25 996.2 996.2 7.2
05/05:00pm 12.0 6.5 10.7 92 0.7 WNW 30 39 16 21 996.3 996.3 7.0
05/04:30pm 11.9 5.8 10.5 91 0.7 WNW 33 50 18 27 996.5 996.5 6.8
05/04:00pm 11.5 5.3 10.1 91 0.7 WNW 33 46 18 25 996.6 996.6 6.6
05/03:49pm 11.3 6.0 9.9 91 0.7 W 28 41 15 22 996.8 996.8 6.2
05/03:37pm 11.4 4.0 9.8 90 0.8 W 39 67 21 36 996.7 996.7 5.4
05/03:30pm 11.6 3.5 10.0 90 0.8 WNW 43 67 23 36 996.7 996.7 5.2
05/03:27pm 11.7 4.4 10.1 90 0.8 WNW 39 63 21 34 996.6 996.6 4.8
05/03:12pm 11.8 5.8 10.2 90 0.8 WNW 32 41 17 22 996.5 996.5 4.6
05/03:02pm 11.9 4.2 10.0 88 1.0 WNW 41 59 22 32 996.4 996.4 4.6
05/03:01pm 11.9 3.8 10.0 88 1.0 WNW 43 59 23 32 996.4 996.4 4.6
05/03:00pm 11.9 3.8 10.0 88 1.0 WNW 43 59 23 32 996.4 996.4 4.6
05/02:44pm 13.0 6.3 10.9 87 1.1 WNW 37 59 20 32 996.1 996.1 4.4
05/02:33pm 13.4 6.9 11.8 90 0.9 WNW 37 50 20 27 996.0 996.0 4.4
05/02:30pm 13.2 6.3 11.6 90 0.9 WNW 39 50 21 27 995.9 995.9 4.4
05/02:01pm 13.7 5.7 10.5 81 1.7 WNW 43 61 23 33 995.8 995.8 4.0
05/02:00pm 13.8 6.0 11.0 83 1.5 WNW 43 56 23 30 995.8 995.8 4.0
05/01:59pm 13.7 5.8 10.9 83 1.5 WNW 43 56 23 30 995.7 995.7 4.0
05/01:30pm 14.0 6.6 11.3 84 1.4 NW 41 61 22 33 995.9 995.9 3.8
05/01:29pm 14.1 7.1 11.4 84 1.4 NW 39 61 21 33 996.0 996.0 3.8
05/01:18pm 13.2 6.0 10.7 85 1.3 NW 39 54 21 29 996.1 996.1 3.6
05/01:00pm 13.6 6.4 10.4 81 1.7 NW 39 57 21 31 996.5 996.5 3.4
05/12:49pm 14.5 8.2 10.9 79 1.9 NW 35 54 19 29 996.7 996.7 3.4
05/12:30pm 14.1 7.4 10.9 81 1.7 NW 37 52 20 28 996.9 996.9 3.4
05/12:26pm 14.1 7.7 10.7 80 1.8 NW 35 52 19 28 997.0 997.0 3.4
05/12:11pm 14.0 6.7 10.2 78 2.0 NW 39 57 21 31 997.2 997.2 3.4
05/12:00pm 14.1 6.8 10.1 77 2.1 NW 39 56 21 30 997.1 997.1 3.4
05/11:49am 13.8 6.4 10.0 78 2.0 NW 39 56 21 30 997.1 997.1 3.4
05/11:30am 14.3 10.0 12.2 87 1.1 NW 26 72 14 39 997.0 997.0 3.4
05/11:15am 13.3 5.8 10.8 85 1.3 NW 41 59 22 32 997.4 997.4 1.6
05/11:10am 14.4 6.7 12.1 86 1.2 NNW 44 61 24 33 997.3 997.3 0.6
05/11:08am 15.0 7.1 12.7 86 1.3 NNW 46 61 25 33 997.2 997.2 0.6
05/11:00am 15.9 8.8 13.4 85 1.4 NNW 43 61 23 33 997.1 997.1 0.6
05/10:58am 16.1 9.5 13.8 86 1.3 NNW 41 61 22 33 997.1 997.1 0.6
05/10:30am 14.7 10.4 13.2 91 0.8 NNW 28 41 15 22 997.8 997.8 0.6
05/10:00am 14.3 10.0 13.3 94 0.6 NNW 28 35 15 19 998.2 998.2 0.6
05/09:30am 13.7 10.8 12.9 95 0.4 N 20 28 11 15 998.8 998.8 0.0
05/09:00am 13.3 10.3 12.7 96 0.3 N 20 32 11 17 999.1 999.1 16.0
05/08:30am 13.3 10.3 12.5 95 0.4 N 20 26 11 14 999.5 999.5 15.8
05/08:00am 13.3 11.3 12.7 96 0.3 N 15 22 8 12 1000.1 1000.1 15.6
05/07:30am 12.9 11.5 12.3 96 0.3 NE 11 15 6 8 1000.4 1000.4 15.6
05/07:00am 12.8 11.8 12.2 96 0.3 NE 9 13 5 7 1000.6 1000.6 15.6
05/06:30am 12.8 11.4 12.2 96 0.3 NNE 11 13 6 7 1001.2 1001.2 15.6
05/06:00am 12.8 11.4 12.2 96 0.3 N 11 15 6 8 1001.7 1001.7 15.6
05/05:30am 12.7 11.3 12.1 96 0.3 N 11 17 6 9 1002.3 1002.3 15.6
05/05:00am 12.4 10.9 11.8 96 0.3 NE 11 17 6 9 1002.8 1002.8 15.4
05/04:30am 12.3 11.1 11.7 96 0.3 ENE 9 13 5 7 1003.0 1003.0 14.4
05/04:00am 12.1 10.9 11.5 96 0.3 E 9 13 5 7 1003.5 1003.5 14.0
05/03:30am 12.1 11.2 11.5 96 0.3 N 7 9 4 5 1004.3 1004.3 12.4
05/03:00am 12.3 10.7 11.7 96 0.3 N 11 15 6 8 1005.1 1005.1 7.2
05/02:30am 12.3 10.7 11.5 95 0.4 N 11 15 6 8 1005.6 1005.6 5.4
05/02:00am 12.4 9.6 11.5 94 0.5 NNW 17 24 9 13 1006.6 1006.6 3.8
05/01:30am 12.5 10.0 11.2 92 0.7 NNW 15 19 8 10 1007.2 1007.2 2.0
05/01:00am 12.6 10.5 11.2 91 0.7 NW 13 15 7 8 1007.4 1007.4 1.6
05/12:30am 12.9 10.4 11.1 89 0.9 NW 15 20 8 11 1007.7 1007.7 1.0
05/12:00am 12.9 10.5 11.3 90 0.8 NW 15 19 8 10 1008.1 1008.1 1.0
 
Date/Time
EST
Temp
°C
App
Temp
°C
Dew
Point
°C
Rel
Hum
%
Delta-T
°C
Wind Press
QNH
hPa
Press
MSL
hPa
Rain since
9am
mm
Dir  Spd
km/h
Gust
km/h
Spd
kts
Gust
kts
04/11:30pm 12.8 10.0 11.4 91 0.7 NW 17 20 9 11 1008.7 1008.7 1.0
04/11:00pm 12.0 10.9 10.7 92 0.7 N 7 11 4 6 1009.2 1009.2 1.0
04/10:30pm 11.7 10.7 10.4 92 0.7 N 6 7 3 4 1009.6 1009.6 0.8
04/10:00pm 11.7 10.7 10.3 91 0.7 NNW 6 9 3 5 1010.0 1010.0 0.8
04/09:30pm 11.7 10.1 10.3 91 0.7 N 9 11 5 6 1010.1 1010.1 0.6
04/09:00pm 11.5 8.7 10.1 91 0.7 NNW 15 22 8 12 1010.5 1010.5 0.6
04/08:30pm 10.6 9.3 9.2 91 0.7 E 6 7 3 4 1010.7 1010.7 0.6
04/08:00pm 10.4 9.8 8.8 90 0.8 E 2 6 1 3 1010.8 1010.8 0.6
04/07:30pm 10.5 10.2 8.8 89 0.8 CALM 0 0 0 0 1011.2 1011.2 0.6
04/07:00pm 10.5 8.5 8.6 88 0.9 NW 9 15 5 8 1011.5 1011.5 0.6
04/06:30pm 11.2 7.3 8.6 84 1.3 NW 19 22 10 12 1011.7 1011.7 0.4
04/06:08pm 11.2 6.7 8.4 83 1.4 NW 22 32 12 17 1011.8 1011.8 0.4
04/06:00pm 11.3 5.6 8.2 81 1.5 NW 28 39 15 21 1011.9 1011.9 0.4
04/05:58pm 11.4 5.7 8.3 81 1.5 NW 28 39 15 21 1011.9 1011.9 0.4
04/05:30pm 11.5 7.9 8.5 82 1.5 W 17 20 9 11 1011.7 1011.7 0.2
04/05:00pm 12.4 10.1 9.1 80 1.7 NW 11 17 6 9 1011.6 1011.6 0.2
04/04:30pm 12.5 9.8 9.0 79 1.8 NW 13 17 7 9 1011.9 1011.9 0.2
04/04:00pm 12.7 8.6 8.6 76 2.0 WNW 20 30 11 16 1012.0 1012.0 0.2
04/03:30pm 12.8 9.4 9.3 79 1.8 WNW 17 22 9 12 1011.9 1011.9 0.2
04/03:00pm 11.3 6.0 8.3 82 1.5 W 26 44 14 24 1012.0 1012.0 0.2
04/02:30pm 12.9 8.4 8.4 74 2.2 W 22 35 12 19 1012.1 1012.1 0.0
04/02:00pm 13.5 8.9 9.6 77 2.0 WNW 24 35 13 19 1012.5 1012.5 0.0
04/01:30pm 11.8 6.1 8.5 80 1.6 WNW 28 39 15 21 1013.0 1013.0 0.0
04/01:00pm 12.9 6.5 7.1 68 2.8 WNW 30 41 16 22 1013.4 1013.4 0.0
04/12:30pm 13.8 7.2 5.9 59 3.7 WNW 30 41 16 22 1013.7 1013.7 0.0
04/12:00pm 14.0 7.3 5.6 57 4.0 W 30 39 16 21 1013.9 1013.9 0.0
04/11:30am 14.2 8.4 6.3 59 3.8 W 26 39 14 21 1014.0 1014.0 0.0
04/11:00am 13.9 7.9 7.2 64 3.3 W 28 37 15 20 1014.4 1014.4 0.0
04/10:30am 13.4 7.3 6.7 64 3.2 W 28 35 15 19 1014.5 1014.5 0.0
04/10:00am 13.4 8.1 8.3 71 2.5 W 26 37 14 20 1014.9 1014.9 0.0
04/09:30am 13.0 9.1 9.3 78 1.9 WNW 20 32 11 17 1015.1 1015.1 0.0
04/09:00am 12.0 9.4 9.4 84 1.3 WNW 13 19 7 10 1015.0 1015.0 4.6
04/08:30am 10.4 8.4 8.8 90 0.8 NW 9 11 5 6 1014.9 1014.9 4.6
04/08:00am 9.2 6.6 7.6 90 0.8 WSW 11 13 6 7 1014.9 1014.9 4.6
04/07:30am 7.9 4.7 6.7 92 0.6 SW 13 19 7 10 1014.7 1014.7 4.6
04/07:00am 6.9 3.4 5.4 90 0.7 WSW 13 15 7 8 1014.4 1014.4 4.6
04/06:30am 7.9 4.2 6.2 89 0.8 WSW 15 15 8 8 1014.3 1014.3 4.6
04/06:00am 8.4 5.2 6.7 89 0.8 SW 13 15 7 8 1014.2 1014.2 4.6
04/05:30am 6.5 5.0 5.0 90 0.7 SSW 2 7 1 4 1014.2 1014.2 4.6
04/05:00am 6.0 3.6 4.2 88 0.8 SSE 6 6 3 3 1013.9 1013.9 4.6
04/04:30am 6.4 4.0 4.4 87 0.9 WSW 6 9 3 5 1013.8 1013.8 4.6
04/04:00am 6.9 4.0 4.6 85 1.0 SW 9 13 5 7 1013.6 1013.6 4.6
04/03:30am 7.5 4.3 5.0 84 1.1 WSW 11 13 6 7 1013.6 1013.6 4.6
04/03:00am 8.6 4.9 6.2 85 1.1 W 15 19 8 10 1013.8 1013.8 4.6
04/02:30am 8.9 4.6 6.9 87 0.9 W 19 26 10 14 1014.3 1014.3 4.6
04/02:00am 8.9 4.5 6.7 86 1.0 WNW 19 24 10 13 1014.5 1014.5 4.6
04/01:30am 9.5 4.6 6.8 83 1.3 WNW 22 28 12 15 1014.6 1014.6 4.6
04/01:00am 9.1 4.9 5.8 80 1.5 WNW 17 22 9 12 1014.5 1014.5 4.6
04/12:30am 8.6 4.8 5.9 83 1.2 W 15 20 8 11 1014.3 1014.3 4.6
04/12:00am 8.6 4.4 5.9 83 1.2 W 17 22 9 12 1014.1 1014.1 4.6
 
Date/Time
EST
Temp
°C
App
Temp
°C
Dew
Point
°C
Rel
Hum
%
Delta-T
°C
Wind Press
QNH
hPa
Press
MSL
hPa
Rain since
9am
mm
Dir  Spd
km/h
Gust
km/h
Spd
kts
Gust
kts
03/11:30pm 8.6 4.9 6.1 84 1.1 WSW 15 20 8 11 1014.1 1014.1 4.6
03/11:00pm 8.8 4.2 6.6 86 1.0 WSW 20 24 11 13 1014.1 1014.1 4.4
03/10:30pm 8.7 4.2 6.8 88 0.9 W 20 24 11 13 1013.9 1013.9 4.4
03/10:00pm 9.1 3.1 7.1 87 0.9 WSW 28 39 15 21 1013.7 1013.7 4.4
03/09:30pm 9.4 5.1 7.0 85 1.1 W 19 26 10 14 1013.4 1013.4 4.2
03/09:00pm 8.9 5.0 7.0 88 0.9 W 17 20 9 11 1013.2 1013.2 4.0
03/08:30pm 8.6 4.2 6.4 86 1.0 W 19 24 10 13 1012.6 1012.6 4.0
03/08:00pm 9.2 3.5 6.5 83 1.3 W 26 33 14 18 1012.4 1012.4 4.0
03/07:30pm 9.6 5.2 6.5 81 1.4 WNW 19 22 10 12 1012.0 1012.0 3.8
03/07:00pm 10.1 5.0 5.9 75 1.9 WSW 22 32 12 17 1011.4 1011.4 3.6
03/06:30pm 10.0 3.8 6.2 77 1.8 WSW 28 39 15 21 1010.7 1010.7 3.6
03/06:00pm 10.2 3.8 7.1 81 1.5 WSW 30 43 16 23 1010.1 1010.1 3.6
03/05:30pm 10.6 3.8 7.1 79 1.7 W 32 43 17 23 1009.4 1009.4 3.2
03/05:00pm 10.3 3.5 7.7 84 1.3 W 33 44 18 24 1009.0 1009.0 3.2
03/04:37pm 9.8 1.7 7.2 84 1.2 W 39 50 21 27 1008.6 1008.6 3.2
03/04:30pm 9.8 2.1 7.2 84 1.2 W 37 52 20 28 1008.6 1008.6 3.2
03/04:16pm 9.7 -0.7 6.2 79 1.6 WSW 50 69 27 37 1008.5 1008.5 3.0
03/04:13pm 9.9 -0.4 6.4 79 1.6 WSW 50 65 27 35 1008.3 1008.3 2.8
03/04:00pm 12.1 2.1 6.2 67 2.8 W 48 69 26 37 1007.5 1007.5 2.2
03/03:49pm 12.3 3.0 6.1 66 2.9 W 44 63 24 34 1007.4 1007.4 2.2
03/03:30pm 12.2 1.9 6.5 68 2.7 W 50 65 27 35 1007.3 1007.3 2.2
03/03:22pm 12.2 1.6 6.9 70 2.5 W 52 65 28 35 1007.2 1007.2 2.2
03/03:00pm 12.2 2.0 7.1 71 2.5 W 50 69 27 37 1007.0 1007.0 2.2
03/02:32pm 10.6 0.1 5.4 70 2.4 WSW 50 72 27 39 1006.8 1006.8 2.2
03/02:30pm 11.9 1.4 5.8 66 2.8 WSW 50 80 27 43 1006.6 1006.6 1.6
03/02:22pm 12.5 2.3 5.2 61 3.4 W 48 80 26 43 1006.4 1006.4 1.6
03/02:21pm 12.5 2.8 5.7 63 3.2 W 46 74 25 40 1006.5 1006.5 1.6
03/02:04pm 12.9 1.1 4.8 58 3.7 W 56 83 30 45 1006.2 1006.2 1.6
03/02:00pm 12.9 0.5 4.8 58 3.7 W 59 83 32 45 1006.2 1006.2 1.6
03/01:54pm 12.6 1.5 4.6 58 3.7 W 52 82 28 44 1006.0 1006.0 1.6
03/01:30pm 13.0 3.4 6.4 64 3.1 W 46 63 25 34 1005.9 1005.9 1.6
03/01:00pm 12.9 1.2 5.1 59 3.6 W 56 76 30 41 1005.6 1005.6 1.6
03/12:30pm 13.2 3.3 6.8 65 3.1 W 48 67 26 36 1005.4 1005.4 1.6
03/12:00pm 12.4 2.3 5.6 63 3.2 W 48 69 26 37 1005.4 1005.4 1.6
03/11:44am 13.0 4.9 6.8 66 3.0 W 39 57 21 31 1005.3 1005.3 1.6
03/11:30am 12.7 4.6 7.0 68 2.7 WSW 39 50 21 27 1005.2 1005.2 1.6
03/11:27am 12.8 5.1 7.0 68 2.8 WSW 37 50 20 27 1005.2 1005.2 1.6
03/11:00am 12.6 3.8 7.1 69 2.7 W 43 63 23 34 1004.8 1004.8 1.6
03/10:53am 12.3 5.0 7.0 70 2.5 W 35 54 19 29 1004.8 1004.8 1.6
03/10:44am 11.5 3.4 7.0 74 2.1 W 39 56 21 30 1004.8 1004.8 1.6
03/10:37am 11.0 1.5 6.9 76 1.9 W 46 72 25 39 1004.9 1004.9 1.6
03/10:35am 10.7 0.5 6.8 77 1.8 W 50 78 27 42 1004.9 1004.9 1.6
03/10:30am 10.4 0.0 6.2 75 2.0 W 50 78 27 42 1004.8 1004.8 1.6
03/10:28am 10.4 1.1 5.8 73 2.1 W 44 78 24 42 1004.8 1004.8 1.4
03/10:27am 10.7 1.6 5.9 72 2.2 W 43 78 23 42 1004.7 1004.7 1.4
03/10:22am 12.2 4.8 6.9 70 2.5 W 35 54 19 29 1004.5 1004.5 1.2
03/10:02am 11.2 4.1 7.9 80 1.6 W 35 46 19 25 1004.3 1004.3 1.2
03/10:00am 11.0 3.8 7.7 80 1.6 W 35 44 19 24 1004.3 1004.3 1.2
03/09:52am 10.6 3.4 7.7 82 1.4 W 35 57 19 31 1004.2 1004.2 1.2
03/09:42am 10.0 1.5 5.2 72 2.2 W 39 72 21 39 1004.4 1004.4 0.8
03/09:30am 12.2 4.7 6.5 68 2.7 WSW 35 54 19 29 1004.0 1004.0 0.0
03/09:00am 11.8 4.8 6.9 72 2.4 WSW 33 52 18 28 1003.8 1003.8 9.6
03/08:56am 11.5 4.3 6.0 69 2.6 WSW 33 52 18 28 1003.6 1003.6 9.6
03/08:55am 11.5 4.3 6.0 69 2.6 WSW 33 46 18 25 1003.6 1003.6 9.6
03/08:30am 11.6 4.1 6.5 71 2.4 WSW 35 48 19 26 1003.2 1003.2 9.6
03/08:03am 11.0 3.7 7.3 78 1.8 W 35 57 19 31 1002.3 1002.3 9.6
03/08:00am 11.2 4.3 7.3 77 1.9 W 33 46 18 25 1002.3 1002.3 9.6
03/07:30am 11.1 4.9 7.8 80 1.6 W 30 39 16 21 1001.7 1001.7 9.6
03/07:26am 11.1 5.3 7.8 80 1.6 W 28 37 15 20 1001.6 1001.6 9.6
03/07:07am 11.0 4.9 8.2 83 1.4 WSW 30 48 16 26 1001.4 1001.4 9.6
03/07:00am 11.0 4.7 8.8 86 1.1 WSW 32 41 17 22 1001.3 1001.3 9.6
03/06:52am 10.8 4.3 8.9 88 0.9 WSW 33 44 18 24 1001.3 1001.3 9.6
03/06:42am 10.9 3.7 9.0 88 0.9 WSW 37 56 20 30 1001.3 1001.3 9.6
03/06:30am 11.2 3.7 9.3 88 1.0 WSW 39 50 21 27 1001.1 1001.1 9.4
03/06:00am 11.7 4.7 9.9 89 0.9 W 37 50 20 27 1000.4 1000.4 9.4
03/05:45am 12.2 4.1 10.8 91 0.7 W 44 61 24 33 1000.3 1000.3 9.2
03/05:34am 12.5 4.8 11.4 93 0.6 W 43 61 23 33 1000.1 1000.1 8.4
03/05:30am 12.4 5.5 11.5 94 0.5 WNW 39 56 21 30 1000.0 1000.0 8.2
03/05:27am 12.4 5.0 11.3 93 0.6 WNW 41 56 22 30 999.9 999.9 8.0
03/05:15am 12.3 6.4 11.2 93 0.6 WNW 33 52 18 28 999.8 999.8 8.0
03/05:00am 12.3 5.3 11.2 93 0.6 WNW 39 50 21 27 999.9 999.9 7.0
03/04:57am 12.3 5.3 11.2 93 0.6 WNW 39 50 21 27 999.9 999.9 6.8
03/04:38am 12.4 5.4 11.1 92 0.7 WNW 39 57 21 31 1000.1 1000.1 6.4
03/04:37am 12.3 5.6 11.0 92 0.7 WNW 37 52 20 28 1000.0 1000.0 6.4
03/04:30am 12.3 5.2 10.9 91 0.7 WNW 39 54 21 29 1000.3 1000.3 4.0
03/04:17am 12.7 5.9 10.8 88 1.0 WNW 37 59 20 32 1000.3 1000.3 3.2
03/04:00am 12.7 5.2 10.9 89 0.9 WNW 41 54 22 29 1000.4 1000.4 3.2
03/03:30am 12.3 6.0 10.9 91 0.7 WNW 35 48 19 26 1000.9 1000.9 3.2
03/03:10am 12.6 6.2 10.8 89 0.9 NW 35 48 19 26 1001.2 1001.2 3.0
03/03:00am 12.5 5.7 10.7 89 0.9 WNW 37 57 20 31 1001.7 1001.7 3.0
03/02:51am 12.4 6.0 10.6 89 0.9 WNW 35 57 19 31 1001.8 1001.8 3.0
03/02:30am 12.5 6.7 10.7 89 0.9 WNW 32 44 17 24 1002.2 1002.2 2.8
03/02:00am 12.3 6.5 10.9 91 0.7 WNW 32 41 17 22 1002.8 1002.8 2.8
03/01:30am 12.0 6.2 10.7 92 0.7 WNW 32 46 17 25 1003.1 1003.1 2.8
03/01:14am 12.3 6.3 10.9 91 0.7 WNW 33 44 18 24 1003.3 1003.3 1.6
03/01:04am 12.2 6.8 10.8 91 0.7 WNW 30 48 16 26 1003.5 1003.5 1.6
03/01:01am 12.1 7.0 10.5 90 0.8 WNW 28 43 15 23 1003.5 1003.5 1.6
03/01:00am 12.1 7.4 10.5 90 0.8 WNW 26 33 14 18 1003.5 1003.5 1.6
03/12:51am 12.1 5.6 10.3 89 0.9 WNW 35 56 19 30 1003.5 1003.5 1.6
03/12:41am 12.3 5.8 10.4 88 1.0 WNW 35 57 19 31 1003.7 1003.7 1.6
03/12:30am 12.5 6.6 10.6 88 1.0 WNW 32 39 17 21 1003.7 1003.7 1.6

Other formats

Comma delimited format used in spreadsheet applications
http://www.bom.gov.au/fwo/IDT60801/IDT60801.94953.axf

JavaScript Object Notation format (JSON) in row-major order
http://www.bom.gov.au/fwo/IDT60801/IDT60801.94953.json

Data quality

Most of these data are generated automatically and are frequently updated. Quality checks on data are not normally performed. It is possible for incorrect values to appear. Refer to information at About Latest Weather Observations and please check the disclaimer before using these data.